createdAt,value
2018-12-22T00:01:30.968Z,16.14
2018-12-22T00:04:00.974Z,16.40
2018-12-22T00:06:30.312Z,16.19
2018-12-22T00:09:00.941Z,15.63
2018-12-22T00:11:32.464Z,16.07
2018-12-22T00:14:01.744Z,16.37
2018-12-22T00:16:30.960Z,16.46
2018-12-22T00:19:00.249Z,16.96
2018-12-22T00:21:32.464Z,16.98
2018-12-22T00:24:03.303Z,16.67
2018-12-22T00:26:32.511Z,16.36
2018-12-22T00:29:01.760Z,16.39
2018-12-22T00:31:32.962Z,16.20
2018-12-22T00:34:02.256Z,16.38
2018-12-22T00:36:33.256Z,15.89
2018-12-22T00:39:03.221Z,15.50
2018-12-22T00:41:34.115Z,16.10
2018-12-22T00:44:03.975Z,16.54
2018-12-22T00:46:33.735Z,17.05
2018-12-22T00:49:05.452Z,16.99
2018-12-22T00:51:34.645Z,16.86
2018-12-22T00:54:03.860Z,17.05
2018-12-22T00:56:35.504Z,17.37
2018-12-22T00:59:07.426Z,17.43
2018-12-22T01:01:37.590Z,16.10
2018-12-22T01:04:09.307Z,16.24
2018-12-22T01:06:41.227Z,17.06
2018-12-22T01:09:11.361Z,17.25
2018-12-22T01:11:41.665Z,17.01
2018-12-22T01:14:17.582Z,16.59
2018-12-22T01:16:47.628Z,16.32
2018-12-22T01:19:22.231Z,16.57
2018-12-22T01:21:51.544Z,16.77
2018-12-22T01:24:22.011Z,16.60
2018-12-22T01:26:51.809Z,16.43
2018-12-22T01:29:23.011Z,16.60
2018-12-22T01:31:52.643Z,16.48
2018-12-22T01:34:21.911Z,16.94
2018-12-22T01:36:53.316Z,16.73
2018-12-22T01:39:22.494Z,16.90
2018-12-22T01:41:53.257Z,17.07
2018-12-22T01:44:23.193Z,17.44
2018-12-22T01:46:52.884Z,16.74
2018-12-22T01:49:22.766Z,16.76
2018-12-22T01:51:51.974Z,15.95
2018-12-22T01:54:21.300Z,16.37
2018-12-22T01:56:52.012Z,16.35
2018-12-22T01:59:23.592Z,16.12
2018-12-22T02:01:55.424Z,16.61
2018-12-22T02:04:24.778Z,16.79
2018-12-22T02:06:54.892Z,16.76
2018-12-22T02:09:24.967Z,16.57
2018-12-22T02:11:54.198Z,16.69
2018-12-22T02:14:23.444Z,16.63
2018-12-22T02:16:54.202Z,16.17
2018-12-22T02:19:23.958Z,16.08
2018-12-22T02:21:53.680Z,15.92
2018-12-22T02:24:23.887Z,16.66
2018-12-22T02:26:53.094Z,16.45
2018-12-22T02:29:22.993Z,16.39
2018-12-22T02:31:54.997Z,16.35
2018-12-22T02:34:25.398Z,15.96
2018-12-22T02:36:55.956Z,16.04
2018-12-22T02:39:30.045Z,16.05
2018-12-22T02:41:59.494Z,16.04
2018-12-22T02:44:29.209Z,15.99
2018-12-22T02:46:58.910Z,15.63
2018-12-22T02:49:29.864Z,15.96
2018-12-22T02:52:00.612Z,15.86
2018-12-22T02:54:30.118Z,16.16
2018-12-22T02:57:01.611Z,15.71
2018-12-22T02:59:30.821Z,15.87
2018-12-22T03:02:00.509Z,15.94
2018-12-22T03:04:31.445Z,16.36
2018-12-22T03:08:31.397Z,16.45
2018-12-22T03:11:00.735Z,15.69
2018-12-22T03:13:30.077Z,15.77
2018-12-22T03:15:59.282Z,15.44
2018-12-22T03:18:28.531Z,15.59
2018-12-22T03:20:59.072Z,16.26
2018-12-22T03:23:28.442Z,16.00
2018-12-22T03:25:57.715Z,16.10
2018-12-22T03:28:26.918Z,15.48
2018-12-22T03:30:56.133Z,15.62
2018-12-22T03:33:26.243Z,14.95
2018-12-22T03:35:55.442Z,14.97
2018-12-22T03:38:25.896Z,15.61
2018-12-22T03:40:56.708Z,15.17
2018-12-22T03:43:26.559Z,15.11
2018-12-22T03:45:57.524Z,14.93
2018-12-22T03:48:29.047Z,14.58
2018-12-22T03:50:58.699Z,14.98
2018-12-22T03:53:28.434Z,14.86
2018-12-22T03:56:00.516Z,15.23
2018-12-22T03:58:30.784Z,14.74
2018-12-22T04:01:00.127Z,15.07
2018-12-22T04:03:30.294Z,15.02
2018-12-22T04:05:59.940Z,14.86
2018-12-22T04:08:29.381Z,14.91
2018-12-22T04:10:58.626Z,14.06
2018-12-22T04:13:27.768Z,14.18
2018-12-22T04:15:57.500Z,14.36
2018-12-22T04:18:27.957Z,13.64
2018-12-22T04:20:57.314Z,13.36
2018-12-22T04:23:27.198Z,13.52
2018-12-22T04:25:59.909Z,13.74
2018-12-22T04:28:29.179Z,14.09
2018-12-22T04:30:58.608Z,13.74
2018-12-22T04:33:29.218Z,13.78
2018-12-22T04:35:58.871Z,14.14
2018-12-22T04:38:29.591Z,14.38
2018-12-22T04:40:58.885Z,13.53
2018-12-22T04:43:28.802Z,13.58
2018-12-22T04:45:58.083Z,14.06
2018-12-22T04:48:27.473Z,14.21
2018-12-22T04:50:57.298Z,14.87
2018-12-22T04:53:27.120Z,15.04
2018-12-22T04:55:56.647Z,15.05
2018-12-22T04:58:25.976Z,15.17
2018-12-22T05:00:55.205Z,15.26
2018-12-22T05:03:24.937Z,15.60
2018-12-22T05:05:55.566Z,14.82
2018-12-22T05:08:25.693Z,15.27
2018-12-22T05:10:55.544Z,15.01
2018-12-22T05:13:24.787Z,15.06
2018-12-22T05:15:56.388Z,15.36
2018-12-22T05:18:28.371Z,14.96
2018-12-22T05:20:58.696Z,15.01
2018-12-22T05:23:27.979Z,15.08
2018-12-22T05:26:00.471Z,15.45
2018-12-22T05:28:29.692Z,15.02
2018-12-22T05:30:59.018Z,15.48
2018-12-22T05:33:28.806Z,15.13
2018-12-22T05:35:59.324Z,15.70
2018-12-22T05:38:29.091Z,15.50
2018-12-22T05:40:59.107Z,15.28
2018-12-22T05:43:28.846Z,15.66
2018-12-22T05:46:00.033Z,15.71
2018-12-22T05:48:29.298Z,15.48
2018-12-22T05:50:59.047Z,15.14
2018-12-22T05:53:28.656Z,15.35
2018-12-22T05:55:57.891Z,15.56
2018-12-22T05:58:27.094Z,15.84
2018-12-22T06:00:56.974Z,15.60
2018-12-22T06:03:27.363Z,15.55
2018-12-22T06:05:57.295Z,15.53
2018-12-22T06:08:28.828Z,15.49
2018-12-22T06:11:00.467Z,15.69
2018-12-22T06:13:33.091Z,15.45
2018-12-22T06:16:03.218Z,15.36
2018-12-22T06:18:32.537Z,15.44
2018-12-22T06:21:03.614Z,15.06
2018-12-22T06:23:33.625Z,15.35
2018-12-22T06:26:03.172Z,15.58
2018-12-22T06:28:35.547Z,15.00
2018-12-22T06:31:06.166Z,15.14
2018-12-22T06:33:38.455Z,15.15
2018-12-22T06:36:07.755Z,14.95
2018-12-22T06:38:37.347Z,14.93
2018-12-22T06:41:08.007Z,15.07
2018-12-22T06:43:37.700Z,14.82
2018-12-22T06:46:06.932Z,14.86
2018-12-22T06:48:36.178Z,14.84
2018-12-22T06:51:05.455Z,14.84
2018-12-22T06:53:34.881Z,15.19
2018-12-22T06:56:06.251Z,15.18
2018-12-22T06:58:35.452Z,15.22
2018-12-22T07:01:04.656Z,15.65
2018-12-22T07:03:34.527Z,15.28
2018-12-22T07:06:03.745Z,15.06
2018-12-22T07:08:34.979Z,15.41
2018-12-22T07:11:04.315Z,15.35
2018-12-22T07:13:33.563Z,15.90
2018-12-22T07:16:03.286Z,15.40
2018-12-22T07:18:32.547Z,15.73
2018-12-22T07:21:02.222Z,15.94
2018-12-22T07:23:31.601Z,15.91
2018-12-22T07:26:01.256Z,16.08
2018-12-22T07:28:32.056Z,15.73
2018-12-22T07:31:01.446Z,15.73
2018-12-22T07:33:31.521Z,15.88
2018-12-22T07:36:01.805Z,15.87
2018-12-22T07:38:31.083Z,16.04
2018-12-22T07:41:01.752Z,16.29
2018-12-22T07:43:33.156Z,15.37
2018-12-22T07:46:03.042Z,15.90
2018-12-22T07:48:32.652Z,16.16
2018-12-22T07:51:03.359Z,16.07
2018-12-22T07:53:35.206Z,16.13
2018-12-22T07:56:04.571Z,15.96
2018-12-22T07:58:33.816Z,16.05
2018-12-22T08:01:03.767Z,16.10
2018-12-22T08:03:36.476Z,16.22
2018-12-22T08:06:11.380Z,16.00
2018-12-22T08:08:43.339Z,16.18
2018-12-22T08:11:20.076Z,15.81
2018-12-22T08:13:50.071Z,15.99
2018-12-22T08:16:20.579Z,15.73
2018-12-22T08:18:49.899Z,15.97
2018-12-22T08:21:19.238Z,15.96
2018-12-22T08:23:48.609Z,15.73
2018-12-22T08:26:18.119Z,15.93
2018-12-22T08:28:48.077Z,15.75
2018-12-22T08:31:18.339Z,15.78
2018-12-22T08:33:48.494Z,16.02
2018-12-22T08:36:25.032Z,16.17
2018-12-22T08:38:54.882Z,15.98
2018-12-22T08:41:27.135Z,16.07
2018-12-22T08:43:59.345Z,16.07
2018-12-22T08:46:28.614Z,16.13
2018-12-22T08:49:01.101Z,16.23
2018-12-22T08:51:36.304Z,15.87
2018-12-22T08:54:08.530Z,16.14
2018-12-22T08:56:39.066Z,16.06
2018-12-22T08:59:12.313Z,16.00
2018-12-22T09:01:42.124Z,16.15
2018-12-22T09:04:12.290Z,16.18
2018-12-22T09:06:42.271Z,16.40
2018-12-22T09:09:12.810Z,16.48
2018-12-22T09:11:42.137Z,16.26
2018-12-22T09:14:11.803Z,16.00
2018-12-22T09:16:42.198Z,16.03
2018-12-22T09:19:11.966Z,15.95
2018-12-22T09:21:45.156Z,15.89
2018-12-22T09:24:18.293Z,15.87
2018-12-22T09:26:52.339Z,15.78
2018-12-22T09:29:24.616Z,16.06
2018-12-22T09:31:56.590Z,16.28
2018-12-22T09:34:26.953Z,16.34
2018-12-22T09:36:58.215Z,16.13
2018-12-22T09:39:28.832Z,16.15
2018-12-22T09:42:03.467Z,16.46
2018-12-22T09:44:34.587Z,16.46
2018-12-22T09:47:06.279Z,16.07
2018-12-22T09:49:35.503Z,16.02
2018-12-22T09:52:08.115Z,16.40
2018-12-22T09:54:38.309Z,16.59
2018-12-22T09:57:09.429Z,16.64
2018-12-22T09:59:39.940Z,16.78
2018-12-22T10:02:10.901Z,16.87
2018-12-22T10:04:40.246Z,17.24
2018-12-22T10:07:10.574Z,17.19
2018-12-22T10:09:40.391Z,17.36
2018-12-22T10:12:09.711Z,17.03
2018-12-22T10:14:40.261Z,16.94
2018-12-22T10:17:12.639Z,17.07
2018-12-22T10:19:48.686Z,16.91
2018-12-22T10:22:21.924Z,16.75
2018-12-22T10:24:53.410Z,17.12
2018-12-22T10:27:23.815Z,16.68
2018-12-22T10:29:56.800Z,16.92
2018-12-22T10:32:29.306Z,17.26
2018-12-22T10:36:22.543Z,17.36
2018-12-22T10:38:53.250Z,16.75
2018-12-22T10:41:24.559Z,16.61
2018-12-22T10:43:54.335Z,16.96
2018-12-22T10:46:25.491Z,16.70
2018-12-22T10:49:05.377Z,16.98
2018-12-22T10:51:36.086Z,16.58
2018-12-22T10:54:07.931Z,16.78
2018-12-22T10:56:44.606Z,16.80
2018-12-22T10:59:16.513Z,17.23
2018-12-22T11:01:48.448Z,17.18
2018-12-22T11:04:20.729Z,17.32
2018-12-22T11:07:00.535Z,17.42
2018-12-22T11:09:31.429Z,17.55
2018-12-22T11:12:02.776Z,17.36
2018-12-22T11:14:32.408Z,17.13
2018-12-22T11:17:02.877Z,17.26
2018-12-22T11:19:32.800Z,17.44
2018-12-22T11:22:03.289Z,16.99
2018-12-22T11:24:34.823Z,17.30
2018-12-22T11:27:12.426Z,16.20
2018-12-22T11:29:45.277Z,16.54
2018-12-22T11:32:23.553Z,16.05
2018-12-22T11:34:54.970Z,16.71
2018-12-22T11:37:27.346Z,17.29
2018-12-22T11:39:58.320Z,16.88
2018-12-22T11:42:29.371Z,16.90
2018-12-22T11:45:00.655Z,16.61
2018-12-22T11:47:44.014Z,16.97
2018-12-22T11:50:22.198Z,16.39
2018-12-22T11:52:54.372Z,16.32
2018-12-22T11:55:29.515Z,16.62
2018-12-22T11:58:03.120Z,16.87
2018-12-22T12:00:37.896Z,16.84
2018-12-22T12:03:09.088Z,16.91
2018-12-22T12:05:40.749Z,16.71
2018-12-22T12:08:10.923Z,16.95
2018-12-22T12:10:42.731Z,16.39
2018-12-22T12:13:14.140Z,17.27
2018-12-22T12:15:51.831Z,16.21
2018-12-22T12:19:14.219Z,16.71
2018-12-22T12:21:43.886Z,16.33
2018-12-22T12:24:15.956Z,16.49
2018-12-22T12:26:46.339Z,16.65
2018-12-22T12:29:20.088Z,16.86
2018-12-22T12:31:52.181Z,16.56
2018-12-22T12:34:22.933Z,17.17
2018-12-22T12:36:52.134Z,17.58
2018-12-22T12:39:22.198Z,16.58
2018-12-22T12:41:53.508Z,17.04
2018-12-22T12:44:27.224Z,16.87
2018-12-22T12:46:59.274Z,16.50
2018-12-22T12:49:37.692Z,17.06
2018-12-22T12:52:09.741Z,17.07
2018-12-22T12:54:40.550Z,17.24
2018-12-22T12:57:11.026Z,17.61
2018-12-22T12:59:40.716Z,16.90
2018-12-22T13:02:10.267Z,17.39
2018-12-22T13:04:41.353Z,17.47
2018-12-22T13:07:11.434Z,17.75
2018-12-22T13:09:43.718Z,17.16
2018-12-22T13:12:18.656Z,16.95
2018-12-22T13:14:50.991Z,16.70
2018-12-22T13:17:24.775Z,16.95
2018-12-22T13:19:56.313Z,17.48
2018-12-22T13:22:29.456Z,16.92
2018-12-22T13:25:00.850Z,17.28
2018-12-22T13:27:33.174Z,17.07
2018-12-22T13:30:05.386Z,17.35
2018-12-22T13:32:34.795Z,17.29
2018-12-22T13:35:04.359Z,17.24
2018-12-22T13:37:37.775Z,16.92
2018-12-22T13:40:09.616Z,17.11
2018-12-22T13:42:39.331Z,16.63
2018-12-22T13:45:10.988Z,16.47
2018-12-22T13:47:43.177Z,16.80
2018-12-22T13:50:15.067Z,17.09
2018-12-22T13:52:48.018Z,16.95
2018-12-22T13:55:21.476Z,17.49
2018-12-22T13:57:52.638Z,17.19
2018-12-22T14:00:24.440Z,16.58
2018-12-22T14:02:58.071Z,16.65
2018-12-22T14:05:27.435Z,16.57
2018-12-22T14:07:57.672Z,16.43
2018-12-22T14:10:28.208Z,16.93
2018-12-22T14:12:58.422Z,16.37
2018-12-22T14:15:28.294Z,16.34
2018-12-22T14:18:22.695Z,16.76
2018-12-22T14:20:53.039Z,16.70
2018-12-22T14:23:24.329Z,17.14
2018-12-22T14:25:55.288Z,17.02
2018-12-22T14:28:27.149Z,17.01
2018-12-22T14:31:02.494Z,17.31
2018-12-22T14:33:35.788Z,17.75
2018-12-22T14:36:09.862Z,17.49
2018-12-22T14:38:39.675Z,16.24
2018-12-22T14:41:11.589Z,16.15
2018-12-22T14:43:42.176Z,16.05
2018-12-22T14:46:13.002Z,15.09
2018-12-22T14:48:46.974Z,16.12
2018-12-22T14:51:18.493Z,16.52
2018-12-22T14:53:50.169Z,16.72
2018-12-22T14:56:21.590Z,16.67
2018-12-22T14:58:52.258Z,15.57
2018-12-22T15:01:22.788Z,16.74
2018-12-22T15:03:52.069Z,16.51
2018-12-22T15:06:22.384Z,16.40
2018-12-22T15:08:56.352Z,16.74
2018-12-22T15:11:27.844Z,17.28
2018-12-22T15:14:00.447Z,17.39
2018-12-22T15:16:31.094Z,17.54
2018-12-22T15:19:00.361Z,17.82
2018-12-22T15:21:30.581Z,17.03
2018-12-22T15:24:04.443Z,17.40
2018-12-22T15:26:35.788Z,17.47
2018-12-22T15:29:06.310Z,17.66
2018-12-22T15:31:40.988Z,17.08
2018-12-22T15:34:12.063Z,17.24
2018-12-22T15:36:41.811Z,17.49
2018-12-22T15:39:15.712Z,17.56
2018-12-22T15:41:46.727Z,17.42
2018-12-22T15:44:17.056Z,17.04
2018-12-22T15:46:47.014Z,17.50
2018-12-22T15:49:19.882Z,17.43
2018-12-22T15:51:51.970Z,17.55
2018-12-22T15:54:22.238Z,16.69
2018-12-22T15:56:51.857Z,16.76
2018-12-22T15:59:23.155Z,16.67
2018-12-22T16:01:54.713Z,16.97
2018-12-22T16:04:28.809Z,16.72
2018-12-22T16:07:05.592Z,16.59
2018-12-22T16:09:36.592Z,16.88
2018-12-22T16:12:08.951Z,16.33
2018-12-22T16:14:40.217Z,16.44
2018-12-22T16:17:09.768Z,16.48
2018-12-22T16:19:41.131Z,16.48
2018-12-22T16:22:16.855Z,16.74
2018-12-22T16:27:32.400Z,16.88
2018-12-22T16:30:05.000Z,16.85
2018-12-22T16:32:41.420Z,16.98
2018-12-22T16:35:12.043Z,17.06
2018-12-22T16:37:43.043Z,16.55
2018-12-22T16:40:14.537Z,16.79
2018-12-22T16:42:52.885Z,16.44
2018-12-22T16:45:25.012Z,16.88
2018-12-22T16:47:55.890Z,16.76
2018-12-22T16:50:26.487Z,16.74
2018-12-22T16:53:01.220Z,16.73
2018-12-22T16:55:35.502Z,17.08
2018-12-22T16:58:09.662Z,17.12
2018-12-22T17:00:50.279Z,17.25
2018-12-22T17:03:21.184Z,17.14
2018-12-22T17:05:52.048Z,17.21
2018-12-22T17:08:24.079Z,17.33
2018-12-22T17:11:04.146Z,16.78
2018-12-22T17:13:38.402Z,17.23
2018-12-22T17:16:10.365Z,16.93
2018-12-22T17:18:46.924Z,17.04
2018-12-22T17:21:26.855Z,17.21
2018-12-22T17:24:10.337Z,17.21
2018-12-22T17:26:44.051Z,16.92
2018-12-22T17:29:15.262Z,17.09
2018-12-22T17:31:45.375Z,16.78
2018-12-22T17:34:16.527Z,17.11
2018-12-22T17:36:52.260Z,17.26
2018-12-22T17:39:25.086Z,17.18
2018-12-22T17:41:58.979Z,17.23
2018-12-22T17:44:29.291Z,17.00
2018-12-22T17:46:59.868Z,17.09
2018-12-22T17:49:35.169Z,16.94
2018-12-22T17:52:05.475Z,16.78
2018-12-22T17:54:38.676Z,17.07
2018-12-22T17:57:08.055Z,16.53
2018-12-22T17:59:37.273Z,16.39
2018-12-22T18:02:07.287Z,16.89
2018-12-22T18:04:36.586Z,16.48
2018-12-22T18:07:06.309Z,16.43
2018-12-22T18:09:37.105Z,16.70
2018-12-22T18:12:07.164Z,16.47
2018-12-22T18:14:37.083Z,16.63
2018-12-22T18:17:06.687Z,16.17
2018-12-22T18:19:37.285Z,16.43
2018-12-22T18:22:06.482Z,16.66
2018-12-22T18:24:35.785Z,16.50
2018-12-22T18:27:05.446Z,16.72
2018-12-22T18:29:35.348Z,16.79
2018-12-22T18:32:06.375Z,16.77
2018-12-22T18:34:37.490Z,16.65
2018-12-22T18:37:07.386Z,16.71
2018-12-22T18:39:36.617Z,17.01
2018-12-22T18:42:14.125Z,16.84
2018-12-22T18:44:43.391Z,16.84
2018-12-22T18:47:13.122Z,17.03
2018-12-22T18:49:43.918Z,17.09
2018-12-22T18:52:14.774Z,17.17
2018-12-22T18:54:45.271Z,17.19
2018-12-22T18:57:15.068Z,17.15
2018-12-22T18:59:44.767Z,16.21
2018-12-22T19:02:14.211Z,16.64
2018-12-22T19:04:46.813Z,16.19
2018-12-22T19:07:20.242Z,16.47
2018-12-22T19:09:52.092Z,16.80
2018-12-22T19:12:22.120Z,16.92
2018-12-22T19:14:53.647Z,16.88
2018-12-22T19:17:24.625Z,16.83
2018-12-22T19:20:00.033Z,16.74
2018-12-22T19:22:32.117Z,16.40
2018-12-22T19:25:05.861Z,15.37
2018-12-22T19:27:40.659Z,16.04
2018-12-22T19:30:11.961Z,15.90
2018-12-22T19:32:43.131Z,15.35
2018-12-22T19:35:13.152Z,15.53
2018-12-22T19:37:42.491Z,15.78
2018-12-22T19:40:14.614Z,15.77
2018-12-22T19:42:49.619Z,15.77
2018-12-22T19:45:25.755Z,15.52
2018-12-22T19:47:57.967Z,15.08
2018-12-22T19:50:29.275Z,15.18
2018-12-22T19:52:58.658Z,15.12
2018-12-22T19:55:29.563Z,15.66
2018-12-22T19:58:01.030Z,15.92
2018-12-22T20:00:30.395Z,15.47
2018-12-22T20:03:00.961Z,14.65
2018-12-22T20:05:33.542Z,15.33
2018-12-22T20:08:06.635Z,15.24
2018-12-22T20:10:39.139Z,15.38
2018-12-22T20:13:08.379Z,15.52
2018-12-22T20:15:38.095Z,15.90
2018-12-22T20:18:08.028Z,15.98
2018-12-22T20:20:38.701Z,15.62
2018-12-22T20:23:08.458Z,15.64
2018-12-22T20:25:39.162Z,14.40
2018-12-22T20:28:11.679Z,14.55
2018-12-22T20:30:41.872Z,15.05
2018-12-22T20:33:11.843Z,15.15
2018-12-22T20:35:47.831Z,15.11
2018-12-22T20:38:18.113Z,15.43
2018-12-22T20:40:47.341Z,15.16
2018-12-22T20:43:18.646Z,14.93
2018-12-22T20:45:52.301Z,14.58
2018-12-22T20:48:23.493Z,14.58
2018-12-22T20:50:54.566Z,14.96
2018-12-22T20:53:26.499Z,15.35
2018-12-22T20:55:58.783Z,15.42
2018-12-22T20:58:34.183Z,15.46
2018-12-22T21:01:06.980Z,14.75
2018-12-22T21:03:40.981Z,15.33
2018-12-22T21:06:17.931Z,15.65
2018-12-22T21:08:47.844Z,15.33
2018-12-22T21:11:17.635Z,14.88
2018-12-22T21:13:46.862Z,14.84
2018-12-22T21:16:17.612Z,15.07
2018-12-22T21:18:47.840Z,15.36
2018-12-22T21:21:18.761Z,15.39
2018-12-22T21:23:48.506Z,15.71
2018-12-22T21:26:18.676Z,15.71
2018-12-22T21:28:48.001Z,15.63
2018-12-22T21:31:17.307Z,15.87
2018-12-22T21:33:47.031Z,15.87
2018-12-22T21:36:16.429Z,15.93
2018-12-22T21:38:46.360Z,15.63
2018-12-22T21:41:16.569Z,15.69
2018-12-22T21:43:47.062Z,15.63
2018-12-22T21:46:20.169Z,15.47
2018-12-22T21:48:51.188Z,14.88
2018-12-22T21:51:21.895Z,14.88
2018-12-22T21:53:51.378Z,15.34
2018-12-22T21:56:22.599Z,15.31
2018-12-22T21:58:56.467Z,15.68
2018-12-22T22:01:26.687Z,15.28
2018-12-22T22:03:56.166Z,15.69
2018-12-22T22:06:26.159Z,15.85
2018-12-22T22:08:56.337Z,15.92
2018-12-22T22:11:25.665Z,15.69
2018-12-22T22:13:55.525Z,15.52
2018-12-22T22:16:26.257Z,15.87
2018-12-22T22:18:56.507Z,15.38
2018-12-22T22:21:26.061Z,15.26
2018-12-22T22:23:57.474Z,14.72
2018-12-22T22:26:27.997Z,15.42
2018-12-22T22:28:59.097Z,15.27
2018-12-22T22:31:30.647Z,14.68
2018-12-22T22:34:01.844Z,14.11
2018-12-22T22:36:31.099Z,14.45
2018-12-22T22:39:00.787Z,14.66
2018-12-22T22:41:31.162Z,14.57
2018-12-22T22:44:01.056Z,14.59
2018-12-22T22:46:32.492Z,15.28
2018-12-22T22:49:02.833Z,15.29
2018-12-22T22:51:38.114Z,15.34
2018-12-22T22:54:15.615Z,15.17
2018-12-22T22:56:47.049Z,15.03
2018-12-22T22:59:16.860Z,14.59
2018-12-22T23:01:47.607Z,14.75
2018-12-22T23:04:25.343Z,15.44
2018-12-22T23:06:57.638Z,15.72
2018-12-22T23:09:32.400Z,15.21
2018-12-22T23:12:03.816Z,15.44
2018-12-22T23:14:33.560Z,15.36
2018-12-22T23:17:03.707Z,14.95
2018-12-22T23:19:36.924Z,15.13
2018-12-22T23:22:06.844Z,15.05
2018-12-22T23:24:36.839Z,15.06
2018-12-22T23:27:06.330Z,15.29
2018-12-22T23:29:35.693Z,15.01
2018-12-22T23:32:05.356Z,14.65
2018-12-22T23:34:34.568Z,15.16
2018-12-22T23:37:03.824Z,15.69
2018-12-22T23:39:32.999Z,15.22
2018-12-22T23:42:03.223Z,15.08
2018-12-22T23:44:33.547Z,13.96
2018-12-22T23:47:02.787Z,15.09
2018-12-22T23:49:34.926Z,15.33
2018-12-22T23:52:04.277Z,15.39
2018-12-22T23:54:33.565Z,15.44
2018-12-22T23:57:05.410Z,15.09
2018-12-22T23:59:36.614Z,14.37
